To NAV CANADA Home Page Login to a new session Search on AWWS site Feedback and Comments Disclaimer Vers la page française équivalente Tips FAQ What's new on the site To the Forecasts and Observations / NOTAM section To "File a Flight Plan" website Publications and other links Update of the User's profile FIC Telephone Numbers My Weather Data Folder Route Weather Data Regional Weather Data Local Weather Data To the Forecasts and Observations / NOTAM section
Request Generated 08/30/2016 at 03:07:04 UTC . Weather information available at that time is displayed.

METAR/TAF

WINNIPEG/JAMES ARMSTRONG RICHARDSON INTL/MB    

METAR CYWG 300300Z 33003KT 15SM FEW250 14/09 A3018 RMK CI2 SLP223=
METAR CYWG 300200Z 36004KT 15SM FEW230 14/09 A3017 RMK CI1 CI TR
SLP220=
METAR CYWG 300100Z 36006KT 15SM FEW230 18/09 A3016 RMK CI1 CI TR
SLP218 DENSITY ALT 1000FT=

TAF CYWG 292338Z 3000/3024 32010KT P6SM FEW150
BECMG 3008/3010 28008KT
RMK NXT FCST BY 300600Z=
Your time UTC time
Weather data provided by Environment Canada and NAV CANADA